Time;durP1;ratioP1;P1;durP2;ratioP2;P2;SDS_P1;SDS_P2;PMS_P1;PMS_P2;Temp;Humidity;BMP_temperature;BMP_pressure;BME280_temperature;BME280_humidity;BME280_pressure;Samples;Min_cycle;Max_cycle;Signal;HPM_P1;HPM_P2
2021/08/08 00:00:24;;;;;;;1.80;1.70;;;;;;;20.30;100.00;96507.00;5031973;28;20226;-82
2021/08/08 00:02:51;;;;;;;2.60;2.03;;;;;;;20.50;100.00;96513.06;5031553;28;20561;-81
2021/08/08 00:05:20;;;;;;;2.10;1.83;;;;;;;20.38;100.00;96510.22;5032002;28;20197;-82
2021/08/08 00:07:48;;;;;;;1.80;1.70;;;;;;;20.40;100.00;96512.66;5032036;28;20198;-82
2021/08/08 00:10:16;;;;;;;1.63;1.53;;;;;;;20.26;100.00;96517.25;5031944;28;20206;-81
2021/08/08 00:12:44;;;;;;;1.87;1.77;;;;;;;20.40;100.00;96513.50;5031706;28;20253;-82
2021/08/08 00:15:12;;;;;;;2.40;1.57;;;;;;;20.14;100.00;96514.47;5031497;28;20201;-83
2021/08/08 00:17:40;;;;;;;2.53;1.83;;;;;;;20.02;100.00;96508.16;5031998;28;20202;-82
2021/08/08 00:20:08;;;;;;;2.00;1.70;;;;;;;20.14;100.00;96508.31;5031803;28;20737;-82
2021/08/08 00:22:37;;;;;;;4.03;1.70;;;;;;;19.87;100.00;96523.59;5031375;28;20256;-82
2021/08/08 00:25:08;;;;;;;2.03;1.43;;;;;;;19.92;100.00;96510.47;5031783;28;20313;-81
2021/08/08 00:27:36;;;;;;;1.67;1.57;;;;;;;20.00;100.00;96512.88;5031550;28;20186;-81
2021/08/08 00:30:04;;;;;;;4.40;2.10;;;;;;;20.09;100.00;96514.28;5031510;28;20206;-81
2021/08/08 00:32:32;;;;;;;2.60;2.03;;;;;;;19.90;100.00;96518.66;5031504;28;20289;-81
2021/08/08 00:34:59;;;;;;;1.90;1.80;;;;;;;19.89;100.00;96518.88;5032029;28;20251;-81
2021/08/08 00:37:26;;;;;;;2.27;2.07;;;;;;;19.65;100.00;96515.06;5031492;28;20203;-81
2021/08/08 00:39:55;;;;;;;2.70;1.70;;;;;;;19.78;100.00;96519.53;5031750;28;20234;-82
2021/08/08 00:42:22;;;;;;;1.50;1.40;;;;;;;19.65;100.00;96512.41;5031702;28;20254;-81
2021/08/08 00:44:49;;;;;;;2.13;1.93;;;;;;;19.76;100.00;96516.25;5031903;28;20633;-82
2021/08/08 00:47:17;;;;;;;4.43;1.67;;;;;;;19.67;100.00;96521.84;5031385;28;20703;-82
2021/08/08 00:49:44;;;;;;;3.27;2.17;;;;;;;19.70;100.00;96518.72;5031582;28;20276;-81
2021/08/08 00:52:11;;;;;;;2.83;1.70;;;;;;;19.42;100.00;96516.31;5031081;28;20618;-82
2021/08/08 00:54:39;;;;;;;3.40;1.80;;;;;;;19.28;100.00;96513.88;5031586;28;20199;-82
2021/08/08 00:57:08;;;;;;;3.03;1.77;;;;;;;19.18;100.00;96516.97;5031358;28;20210;-82
2021/08/08 00:59:35;;;;;;;1.93;1.83;;;;;;;19.27;100.00;96523.72;5031542;28;20198;-82
2021/08/08 01:02:05;;;;;;;2.30;2.10;;;;;;;19.35;100.00;96517.34;5031255;28;20230;-82
2021/08/08 01:04:37;;;;;;;3.30;1.90;;;;;;;19.22;100.00;96523.50;5031806;28;20223;-82
2021/08/08 01:07:08;;;;;;;2.20;1.93;;;;;;;19.16;100.00;96513.69;5031584;28;20191;-81
2021/08/08 01:09:41;;;;;;;2.20;2.10;;;;;;;19.32;100.00;96512.44;5031077;28;20218;-82
2021/08/08 01:12:10;;;;;;;4.87;2.53;;;;;;;19.32;100.00;96512.44;5031602;28;20266;-82
2021/08/08 01:14:41;;;;;;;1.63;1.53;;;;;;;19.25;100.00;96512.44;5031673;28;20579;-81
2021/08/08 01:17:10;;;;;;;2.40;1.97;;;;;;;19.18;100.00;96516.97;5031182;28;20207;-82
2021/08/08 01:19:42;;;;;;;2.23;1.60;;;;;;;19.00;100.00;96513.06;5031112;28;20202;-81
2021/08/08 01:22:11;;;;;;;2.03;1.93;;;;;;;19.28;100.00;96511.22;5031098;28;20297;-82
2021/08/08 01:24:40;;;;;;;3.57;1.97;;;;;;;19.27;100.00;96512.25;5031331;28;20671;-82
2021/08/08 01:27:08;;;;;;;1.73;1.63;;;;;;;19.19;100.00;96507.97;5031547;28;20205;-82
2021/08/08 01:29:35;;;;;;;1.87;1.77;;;;;;;19.11;100.00;96503.63;5034917;28;20261;-81
2021/08/08 01:32:03;;;;;;;1.90;1.80;;;;;;;19.08;100.00;96503.22;5034397;28;20195;-80
2021/08/08 01:34:30;;;;;;;1.67;1.50;;;;;;;19.11;100.00;96506.31;5035157;28;20560;-79
2021/08/08 01:36:57;;;;;;;1.93;1.67;;;;;;;19.15;100.00;96504.03;5034843;28;20209;-79
2021/08/08 01:39:25;;;;;;;3.27;1.73;;;;;;;18.89;100.00;96500.38;5034773;28;20225;-80
2021/08/08 01:41:56;;;;;;;2.10;1.70;;;;;;;19.04;100.00;96492.16;5034455;28;20218;-80
2021/08/08 01:44:27;;;;;;;1.90;1.80;;;;;;;18.93;100.00;96495.47;5034673;28;20226;-79
2021/08/08 01:46:56;;;;;;;2.47;2.27;;;;;;;18.96;100.00;96497.72;5034709;28;20639;-79
2021/08/08 01:49:26;;;;;;;1.87;1.77;;;;;;;18.89;100.00;96495.06;5034531;28;20261;-80
2021/08/08 01:51:54;;;;;;;1.80;1.70;;;;;;;18.89;100.00;96494.25;5034054;28;20266;-79
2021/08/08 01:54:22;;;;;;;1.80;1.60;;;;;;;18.79;100.00;96493.81;5034529;28;20257;-79
2021/08/08 01:56:51;;;;;;;1.83;1.73;;;;;;;18.83;100.00;96487.06;5034535;28;20199;-79
2021/08/08 01:59:20;;;;;;;1.73;1.63;;;;;;;18.85;100.00;96493.00;5034380;28;20209;-79
2021/08/08 02:01:48;;;;;;;4.23;1.80;;;;;;;18.85;100.00;96490.34;5034062;28;20218;-79
2021/08/08 02:04:16;;;;;;;1.70;1.60;;;;;;;18.66;100.00;96490.09;5034337;28;20216;-83
2021/08/08 02:06:44;;;;;;;2.33;2.13;;;;;;;18.61;100.00;96491.75;5034363;28;20602;-79
2021/08/08 02:09:11;;;;;;;2.20;2.00;;;;;;;18.61;100.00;96491.75;5034068;28;20229;-81
2021/08/08 02:11:39;;;;;;;2.00;1.80;;;;;;;18.73;100.00;96484.81;5034137;28;20221;-79
2021/08/08 02:14:07;;;;;;;4.23;2.07;;;;;;;18.65;100.00;96488.47;5033898;28;20233;-80
2021/08/08 02:16:36;;;;;;;2.43;2.10;;;;;;;18.49;100.00;96494.16;5034017;28;20212;-80
2021/08/08 02:19:03;;;;;;;2.23;2.03;;;;;;;18.38;100.00;96494.78;5033864;28;20242;-79
2021/08/08 02:21:31;;;;;;;23.37;3.13;;;;;;;18.57;100.00;96499.31;5033508;28;20302;-80
2021/08/08 02:23:58;;;;;;;2.20;2.00;;;;;;;18.34;100.00;96491.69;5033777;28;20237;-80
2021/08/08 02:26:25;;;;;;;1.93;1.80;;;;;;;18.57;100.00;96495.84;5033802;28;20688;-80
2021/08/08 02:28:53;;;;;;;2.40;1.80;;;;;;;18.58;100.00;96500.94;5033604;28;20205;-80
2021/08/08 02:31:20;;;;;;;1.80;1.70;;;;;;;18.68;100.00;96500.56;5033756;28;20249;-79
2021/08/08 02:33:49;;;;;;;3.53;1.73;;;;;;;18.55;100.00;96504.00;5033627;28;20716;-80
2021/08/08 02:36:16;;;;;;;1.80;1.70;;;;;;;18.52;100.00;96504.41;5033967;28;20195;-80
2021/08/08 02:38:44;;;;;;;4.90;1.93;;;;;;;18.50;100.00;96506.47;5033164;28;20241;-80
2021/08/08 02:41:11;;;;;;;2.10;1.90;;;;;;;18.40;100.00;96500.72;5033508;28;20317;-79
2021/08/08 02:43:38;;;;;;;3.63;1.93;;;;;;;18.64;100.00;96501.97;5033358;28;20249;-80
2021/08/08 02:46:06;;;;;;;1.90;1.80;;;;;;;18.47;100.00;96507.69;5033533;28;20238;-80
2021/08/08 02:48:35;;;;;;;1.90;1.80;;;;;;;18.36;100.00;96504.78;5033285;28;20199;-80
2021/08/08 02:51:03;;;;;;;2.10;1.90;;;;;;;18.21;100.00;96516.41;5033332;28;20195;-79
2021/08/08 02:53:31;;;;;;;3.60;1.70;;;;;;;18.35;100.00;96511.13;5032776;28;20224;-79
2021/08/08 02:55:58;;;;;;;3.77;2.03;;;;;;;18.47;100.00;96509.53;5033263;28;20198;-80
2021/08/08 02:58:26;;;;;;;2.30;2.07;;;;;;;18.32;100.00;96515.00;5033040;28;20709;-80
2021/08/08 03:00:53;;;;;;;3.80;2.37;;;;;;;18.22;100.00;96514.56;5033410;28;20281;-79
2021/08/08 03:03:20;;;;;;;2.50;1.80;;;;;;;18.33;100.00;96518.50;5032974;28;20249;-80
2021/08/08 03:05:47;;;;;;;2.27;1.83;;;;;;;18.25;100.00;96514.19;5033283;28;20700;-80
2021/08/08 03:08:16;;;;;;;3.67;2.27;;;;;;;18.42;100.00;96522.63;5032781;28;20767;-80
2021/08/08 03:10:44;;;;;;;2.13;1.80;;;;;;;18.20;100.00;96519.28;5033005;28;20199;-79
2021/08/08 03:13:11;;;;;;;2.57;1.80;;;;;;;18.45;100.00;96524.88;5032532;28;20230;-80
2021/08/08 03:15:39;;;;;;;2.13;1.93;;;;;;;18.26;100.00;96519.31;5032885;28;20249;-80
2021/08/08 03:18:07;;;;;;;2.03;1.93;;;;;;;18.36;100.00;96518.94;5032627;28;20203;-79
2021/08/08 03:20:34;;;;;;;3.60;2.00;;;;;;;18.36;100.00;96521.59;5032867;28;20198;-79
2021/08/08 03:23:01;;;;;;;4.47;2.00;;;;;;;18.43;100.00;96527.75;5032560;28;20249;-80
2021/08/08 03:25:30;;;;;;;1.80;1.70;;;;;;;18.39;100.00;96521.19;5032973;28;20199;-80
2021/08/08 03:27:57;;;;;;;1.90;1.80;;;;;;;18.38;100.00;96524.03;5032492;28;20663;-79
2021/08/08 03:30:25;;;;;;;2.10;1.90;;;;;;;18.17;100.00;96528.47;5032503;28;20199;-79
2021/08/08 03:32:52;;;;;;;3.20;2.20;;;;;;;18.01;100.00;96536.81;5032119;28;20626;-79
2021/08/08 03:35:20;;;;;;;6.17;2.70;;;;;;;18.22;100.00;96536.69;5032556;28;20233;-80
2021/08/08 03:37:47;;;;;;;2.57;2.00;;;;;;;18.17;100.00;96533.00;5032267;28;20202;-79
2021/08/08 03:40:15;;;;;;;2.43;2.10;;;;;;;18.11;100.00;96537.25;5032698;28;20229;-79
2021/08/08 03:42:44;;;;;;;4.63;2.60;;;;;;;18.20;100.00;96546.72;5031909;28;20722;-79
2021/08/08 03:45:11;;;;;;;3.83;2.47;;;;;;;18.32;100.00;96543.47;5032416;28;20203;-79
2021/08/08 03:47:39;;;;;;;2.30;2.10;;;;;;;18.24;100.00;96547.94;5032188;28;20735;-79
2021/08/08 03:50:07;;;;;;;2.17;1.77;;;;;;;18.19;100.00;96545.06;5031502;28;20258;-80
2021/08/08 03:52:35;;;;;;;4.97;2.20;;;;;;;18.17;100.00;96538.31;5031976;28;20230;-79
2021/08/08 03:55:02;;;;;;;3.57;2.40;;;;;;;18.12;100.00;96541.56;5032459;28;20276;-79
2021/08/08 03:57:29;;;;;;;2.50;1.80;;;;;;;18.12;100.00;96546.91;5032009;28;20692;-79
2021/08/08 03:59:58;;;;;;;2.33;2.20;;;;;;;17.96;100.00;96550.69;5032099;28;20203;-80
2021/08/08 04:02:25;;;;;;;2.17;2.00;;;;;;;18.05;100.00;96548.72;5031655;28;20226;-79
2021/08/08 04:04:53;;;;;;;2.17;2.07;;;;;;;18.19;100.00;96558.38;5032027;28;20195;-79
2021/08/08 04:07:20;;;;;;;2.97;2.23;;;;;;;18.05;100.00;96564.66;5031926;28;20265;-79
2021/08/08 04:09:47;;;;;;;10.40;3.57;;;;;;;18.15;100.00;96561.63;5031984;28;20205;-79
2021/08/08 04:12:15;;;;;;;15.37;4.03;;;;;;;18.17;100.00;96568.38;5031781;28;20203;-79
2021/08/08 04:14:43;;;;;;;5.87;2.10;;;;;;;18.15;100.00;96565.13;5031924;28;20198;-79
2021/08/08 04:17:14;;;;;;;3.50;1.97;;;;;;;18.15;100.00;96572.25;5031721;28;20663;-80
2021/08/08 04:19:41;;;;;;;2.20;2.00;;;;;;;18.02;100.00;96565.06;5031942;28;20183;-79
2021/08/08 04:22:10;;;;;;;2.20;1.83;;;;;;;17.97;100.00;96572.78;5031697;28;20230;-79
2021/08/08 04:24:37;;;;;;;2.03;1.90;;;;;;;17.99;100.00;96576.09;5031516;28;20205;-79
2021/08/08 04:27:05;;;;;;;2.10;2.00;;;;;;;17.97;100.00;96581.59;5031873;28;20292;-79
2021/08/08 04:29:32;;;;;;;2.30;2.20;;;;;;;18.21;100.00;96576.78;5032079;28;20198;-80
2021/08/08 04:32:00;;;;;;;1.80;1.70;;;;;;;18.33;100.00;96580.53;5031332;28;20582;-78
2021/08/08 04:34:31;;;;;;;6.57;2.30;;;;;;;18.27;100.00;96576.00;5031781;28;20202;-80
2021/08/08 04:36:58;;;;;;;3.13;2.00;;;;;;;18.46;100.00;96582.41;5031610;28;20226;-80
2021/08/08 04:39:26;;;;;;;2.53;1.93;;;;;;;18.48;100.00;96585.69;5032170;28;20203;-79
2021/08/08 04:41:53;;;;;;;3.83;2.13;;;;;;;18.55;100.00;96586.53;5031271;28;20226;-80
2021/08/08 04:44:21;;;;;;;2.50;1.73;;;;;;;18.51;100.00;96586.09;5031692;28;20230;-80
2021/08/08 04:46:48;;;;;;;6.07;2.50;;;;;;;18.67;100.00;96584.09;5031481;28;20293;-78
2021/08/08 04:49:16;;;;;;;4.07;2.00;;;;;;;18.82;100.00;96586.63;5031894;28;20264;-79
2021/08/08 04:51:45;;;;;;;2.17;2.00;;;;;;;18.86;100.00;96595.84;5031314;28;20313;-80
2021/08/08 04:54:12;;;;;;;2.30;2.10;;;;;;;18.82;100.00;96599.94;5031825;28;20584;-79
2021/08/08 04:56:39;;;;;;;2.60;1.63;;;;;;;18.90;100.00;96589.09;5031636;28;20290;-79
2021/08/08 04:59:06;;;;;;;2.80;1.70;;;;;;;18.91;100.00;96594.22;5031410;28;20199;-79
2021/08/08 05:01:34;;;;;;;2.43;1.90;;;;;;;18.97;100.00;96592.56;5032138;28;20198;-79
2021/08/08 05:04:01;;;;;;;4.30;1.90;;;;;;;18.93;100.00;96591.34;5035604;28;20562;-79
2021/08/08 05:06:28;;;;;;;2.30;2.13;;;;;;;18.98;100.00;96599.53;5035367;28;20289;-79
2021/08/08 05:08:57;;;;;;;1.83;1.73;;;;;;;19.06;100.00;96591.34;5035105;28;20775;-78
2021/08/08 05:11:24;;;;;;;1.73;1.63;;;;;;;19.18;100.00;96596.88;5035087;28;20238;-78
2021/08/08 05:13:51;;;;;;;3.63;1.90;;;;;;;19.27;100.00;96605.50;5035016;28;20202;-79
2021/08/08 05:16:19;;;;;;;1.90;1.80;;;;;;;19.35;100.00;96594.63;5035178;28;20203;-78
2021/08/08 05:18:46;;;;;;;1.90;1.80;;;;;;;19.42;100.00;96603.44;5034679;28;20206;-78
2021/08/08 05:21:13;;;;;;;2.43;2.00;;;;;;;19.39;100.00;96609.19;5035089;28;20671;-79
2021/08/08 05:23:41;;;;;;;4.80;1.90;;;;;;;19.55;100.00;96610.63;5034727;28;20309;-79
2021/08/08 05:26:09;;;;;;;4.73;2.00;;;;;;;19.61;100.00;96607.94;5034992;28;20199;-79
2021/08/08 05:28:40;;;;;;;2.30;2.00;;;;;;;19.73;100.00;96608.16;5034673;28;20206;-79
2021/08/08 05:31:08;;;;;;;3.73;1.60;;;;;;;19.90;100.00;96612.03;5034928;28;20183;-79
2021/08/08 05:33:35;;;;;;;4.97;2.20;;;;;;;19.99;100.00;96615.31;5034916;28;20233;-79
2021/08/08 05:36:02;;;;;;;2.73;2.00;;;;;;;20.07;100.00;96615.06;5034497;28;20282;-80
2021/08/08 05:38:29;;;;;;;2.63;2.37;;;;;;;20.18;100.00;96621.59;5034627;28;20746;-76
2021/08/08 05:40:57;;;;;;;2.00;1.90;;;;;;;20.28;100.00;96613.16;5035014;28;20230;-75
2021/08/08 05:43:26;;;;;;;2.13;2.03;;;;;;;20.29;100.00;96612.09;5034336;28;20280;-76
2021/08/08 05:45:53;;;;;;;2.20;2.00;;;;;;;20.50;100.00;96602.97;5034305;28;20199;-76
2021/08/08 05:48:20;;;;;;;2.87;2.20;;;;;;;20.73;100.00;96605.97;5034462;28;20288;-76
2021/08/08 05:50:47;;;;;;;2.47;2.27;;;;;;;20.90;100.00;96606.28;5034820;28;20215;-76
2021/08/08 05:53:15;;;;;;;4.77;2.33;;;;;;;21.13;100.00;96617.25;5034166;28;20262;-76
2021/08/08 05:55:46;;;;;;;3.60;3.30;;;;;;;21.27;100.00;96619.81;5034769;28;20205;-76
2021/08/08 05:58:13;;;;;;;2.67;2.47;;;;;;;21.42;100.00;96612.31;5034077;28;20187;-76
2021/08/08 06:00:43;;;;;;;4.43;1.90;;;;;;;21.55;100.00;96616.75;5034552;28;20191;-76
2021/08/08 06:03:11;;;;;;;2.67;2.40;;;;;;;21.80;100.00;96609.50;5034082;28;20226;-75
2021/08/08 06:05:39;;;;;;;4.40;2.60;;;;;;;22.08;100.00;96617.03;5034423;28;20256;-76
2021/08/08 06:08:07;;;;;;;2.20;1.70;;;;;;;22.26;100.00;96613.56;5033733;28;20285;-76
2021/08/08 06:10:34;;;;;;;4.13;1.90;;;;;;;22.44;100.00;96610.03;5034214;28;20202;-76
2021/08/08 06:13:02;;;;;;;2.23;2.00;;;;;;;22.63;100.00;96613.53;5033223;28;20245;-76
2021/08/08 06:15:29;;;;;;;4.00;1.80;;;;;;;22.80;100.00;96613.72;5034213;28;20642;-76
2021/08/08 06:17:58;;;;;;;3.40;1.97;;;;;;;23.05;100.00;96610.09;5033810;28;20242;-76
2021/08/08 06:20:25;;;;;;;2.07;1.60;;;;;;;23.40;100.00;96610.97;5033919;28;20293;-76
2021/08/08 06:22:53;;;;;;;2.10;1.90;;;;;;;23.62;100.00;96613.94;5033655;28;20326;-76
2021/08/08 06:25:20;;;;;;;1.70;1.60;;;;;;;23.86;100.00;96619.31;5033614;28;20203;-76
2021/08/08 06:27:47;;;;;;;1.77;1.67;;;;;;;24.10;100.00;96612.03;5033624;28;20256;-76
2021/08/08 06:30:15;;;;;;;2.77;1.57;;;;;;;24.37;100.00;96612.34;5033795;28;20294;-76
2021/08/08 06:32:42;;;;;;;4.00;1.60;;;;;;;24.51;100.00;96618.28;5033916;28;20559;-76
2021/08/08 06:35:12;;;;;;;2.70;1.63;;;;;;;24.82;100.00;96617.81;5033404;28;20198;-76
2021/08/08 06:37:43;;;;;;;1.93;1.60;;;;;;;24.98;100.00;96616.25;5033522;28;20257;-76
2021/08/08 06:40:11;;;;;;;3.33;1.77;;;;;;;25.06;100.00;96621.22;5033676;28;20187;-76
2021/08/08 06:42:39;;;;;;;1.53;1.43;;;;;;;25.09;100.00;96620.75;5033063;28;20266;-76
2021/08/08 06:45:07;;;;;;;1.53;1.30;;;;;;;25.08;100.00;96621.00;5033531;28;20202;-76
2021/08/08 06:47:35;;;;;;;2.87;1.80;;;;;;;25.52;100.00;96618.53;5033300;28;20198;-76
2021/08/08 06:50:02;;;;;;;3.00;2.53;;;;;;;25.74;100.00;96618.59;5033449;28;20663;-76
2021/08/08 06:52:31;;;;;;;5.77;2.07;;;;;;;25.81;100.00;96621.97;5032841;28;20339;-76
2021/08/08 06:54:58;;;;;;;3.13;2.37;;;;;;;25.86;100.00;96624.72;5033255;28;20631;-76
2021/08/08 06:57:26;;;;;;;3.47;2.07;;;;;;;26.15;100.00;96630.81;5033156;28;20202;-76
2021/08/08 06:59:54;;;;;;;9.40;2.53;;;;;;;26.43;100.00;96631.69;5032728;28;20242;-76
2021/08/08 07:02:22;;;;;;;2.83;2.43;;;;;;;26.42;100.00;96630.88;5033026;28;20207;-76
2021/08/08 07:04:49;;;;;;;2.92;1.98;;;;;;;26.79;100.00;96633.78;5033394;28;20225;-76
2021/08/08 07:07:16;;;;;;;1.90;1.70;;;;;;;27.22;100.00;96628.56;5032941;28;20202;-77
2021/08/08 07:09:45;;;;;;;9.33;8.43;;;;;;;27.22;100.00;96620.47;5032799;28;20206;-76
2021/08/08 07:12:13;;;;;;;6.82;3.97;;;;;;;27.65;100.00;96621.38;5032830;28;20199;-76
2021/08/08 07:14:40;;;;;;;1.90;1.70;;;;;;;27.54;100.00;96620.50;5032904;28;20245;-76
2021/08/08 07:17:07;;;;;;;1.70;1.60;;;;;;;27.68;100.00;96624.38;5032739;28;20260;-76
2021/08/08 07:19:35;;;;;;;1.73;1.55;;;;;;;27.42;100.00;96630.66;5032756;28;20257;-76
2021/08/08 07:22:02;;;;;;;1.50;1.40;;;;;;;27.37;100.00;96636.00;5032416;28;20261;-76
2021/08/08 07:24:29;;;;;;;1.90;1.60;;;;;;;27.31;100.00;96637.84;5032475;28;20226;-76
2021/08/08 07:26:58;;;;;;;1.85;1.67;;;;;;;27.54;100.00;96633.16;5032214;28;20676;-77
2021/08/08 07:29:25;;;;;;;2.20;2.00;;;;;;;27.62;100.00;96635.41;5032624;28;20198;-76
2021/08/08 07:31:53;;;;;;;1.73;1.63;;;;;;;27.56;100.00;96647.22;5032176;28;20195;-76
2021/08/08 07:34:20;;;;;;;5.47;1.98;;;;;;;28.04;100.00;96643.56;5032583;28;20260;-77
2021/08/08 07:36:48;;;;;;;4.18;1.80;;;;;;;28.27;100.00;96644.25;5032342;28;20205;-77
2021/08/08 07:39:15;;;;;;;2.20;1.98;;;;;;;28.19;100.00;96649.03;5032498;28;20209;-77
2021/08/08 07:41:42;;;;;;;4.45;2.17;;;;;;;27.96;100.00;96646.75;5032075;28;20230;-76
2021/08/08 07:44:11;;;;;;;2.25;1.52;;;;;;;28.35;100.00;96638.31;5032305;28;20318;-76
2021/08/08 07:46:39;;;;;;;3.45;2.83;;;;;;;28.67;100.00;96640.91;5032208;28;20230;-77
2021/08/08 07:49:06;;;;;;;2.13;1.90;;;;;;;28.56;100.00;96640.06;5032067;28;20730;-77
2021/08/08 07:51:34;;;;;;;4.72;2.33;;;;;;;28.64;100.00;96649.56;5031947;28;20227;-76
2021/08/08 07:54:01;;;;;;;2.58;2.42;;;;;;;28.94;100.00;96646.16;5032154;28;20198;-76
2021/08/08 07:56:29;;;;;;;2.38;1.80;;;;;;;28.77;100.00;96640.16;5031893;28;20198;-76
2021/08/08 07:58:56;;;;;;;2.42;1.60;;;;;;;28.43;100.00;96640.56;5031959;28;20260;-78
2021/08/08 08:01:25;;;;;;;1.88;1.70;;;;;;;28.52;100.00;96638.97;5031938;28;20209;-77
2021/08/08 08:03:52;;;;;;;1.80;1.70;;;;;;;28.73;100.00;96647.19;5032310;28;20303;-76
2021/08/08 08:06:20;;;;;;;2.10;2.00;;;;;;;28.84;100.00;96649.63;5032089;28;20198;-76
2021/08/08 08:08:47;;;;;;;1.88;1.77;;;;;;;29.00;100.00;96653.25;5020900;28;20243;-78
2021/08/08 08:11:14;;;;;;;4.00;1.70;;;;;;;29.17;100.00;96647.59;5012246;28;20587;-78
2021/08/08 08:13:41;;;;;;;1.70;1.60;;;;;;;29.42;100.00;96649.53;5011946;28;20198;-79
2021/08/08 08:16:09;;;;;;;1.90;1.70;;;;;;;29.09;100.00;96654.31;5012107;28;20680;-78
2021/08/08 08:18:37;;;;;;;2.25;1.70;;;;;;;29.26;100.00;96656.00;5011940;28;20206;-78
2021/08/08 08:21:05;;;;;;;1.80;1.70;;;;;;;29.05;100.00;96653.25;5011938;28;20324;-78
2021/08/08 08:23:32;;;;;;;1.90;1.80;;;;;;;29.87;100.00;96650.63;5011824;28;20259;-78
2021/08/08 08:25:59;;;;;;;2.78;1.60;;;;;;;29.55;100.00;96651.69;5012231;28;20277;-79
2021/08/08 08:28:29;;;;;;;2.55;1.85;;;;;;;30.02;100.00;96655.22;5011730;28;20669;-79
2021/08/08 08:30:57;;;;;;;1.90;1.80;;;;;;;29.61;100.00;96653.34;5012070;28;20200;-78
2021/08/08 08:33:24;;;;;;;2.45;1.52;;;;;;;29.33;100.00;96659.25;5011600;28;20195;-77
2021/08/08 08:35:53;;;;;;;1.95;1.83;;;;;;;29.48;100.00;96650.31;5012019;28;20206;-78
2021/08/08 08:38:21;;;;;;;3.20;2.90;;;;;;;29.80;100.00;96658.22;5015722;28;20249;-77
2021/08/08 08:40:48;;;;;;;2.13;1.92;;;;;;;29.44;100.00;96650.03;5015795;28;20199;-77
2021/08/08 08:43:17;;;;;;;3.13;2.05;;;;;;;29.46;100.00;96652.50;5015673;28;20269;-76
2021/08/08 08:45:46;;;;;;;3.08;2.78;;;;;;;29.78;100.00;96641.41;5016028;28;20245;-78
2021/08/08 08:48:18;;;;;;;4.60;2.10;;;;;;;29.73;100.00;96647.66;5015233;28;20210;-78
2021/08/08 08:50:50;;;;;;;4.13;3.72;;;;;;;29.97;100.00;96647.91;5015943;28;20230;-79
2021/08/08 08:53:19;;;;;;;2.63;2.40;;;;;;;30.16;100.00;96647.31;5015424;28;20231;-78
2021/08/08 08:55:46;;;;;;;3.28;2.10;;;;;;;29.79;100.00;96640.31;5015805;28;20680;-77
2021/08/08 08:58:13;;;;;;;2.50;1.80;;;;;;;29.64;100.00;96645.75;5015430;28;20302;-77
2021/08/08 09:00:42;;;;;;;2.15;2.05;;;;;;;29.73;100.00;96649.56;5015712;28;20200;-77
2021/08/08 09:03:09;;;;;;;2.13;2.03;;;;;;;30.05;100.00;96647.34;5015527;28;20230;-77
2021/08/08 09:05:37;;;;;;;2.35;1.80;;;;;;;30.90;100.00;96652.00;5015578;28;20203;-77
2021/08/08 09:08:05;;;;;;;1.75;1.65;;;;;;;30.64;100.00;96645.03;5014962;28;20227;-77
2021/08/08 09:10:33;;;;;;;1.75;1.65;;;;;;;31.06;100.00;96641.88;5015771;28;20664;-77
2021/08/08 09:13:03;;;;;;;2.20;2.10;;;;;;;30.63;100.00;96633.38;5015162;28;20223;-77
2021/08/08 09:15:36;;;;;;;12.05;3.17;;;;;;;30.42;100.00;96645.41;5015682;28;20199;-77
2021/08/08 09:18:14;;;;;;;2.30;1.60;;;;;;;30.27;100.00;96638.09;5014854;28;20209;-76
2021/08/08 09:20:42;;;;;;;4.15;1.70;;;;;;;30.33;100.00;96643.25;5015256;28;20213;-77
2021/08/08 09:23:10;;;;;;;3.15;1.70;;;;;;;30.35;100.00;96636.75;5015011;28;20779;-77
2021/08/08 09:25:49;;;;;;;1.88;1.77;;;;;;;30.53;100.00;96639.66;5015158;28;20199;-77
2021/08/08 09:28:16;;;;;;;3.78;1.90;;;;;;;30.78;100.00;96636.03;5014660;28;20191;-77
2021/08/08 09:30:44;;;;;;;3.90;1.88;;;;;;;30.54;100.00;96641.28;5015077;28;20199;-77
2021/08/08 09:33:13;;;;;;;2.10;1.90;;;;;;;30.53;100.00;96636.94;5014856;28;20195;-77
2021/08/08 09:35:43;;;;;;;2.70;1.73;;;;;;;30.88;100.00;96629.75;5015018;28;20203;-77
2021/08/08 09:38:13;;;;;;;2.05;1.95;;;;;;;31.30;100.00;96628.41;5014924;28;20267;-77
2021/08/08 09:40:43;;;;;;;1.90;1.50;;;;;;;30.64;100.00;96634.19;5014808;28;20580;-77
2021/08/08 09:43:12;;;;;;;1.73;1.50;;;;;;;30.60;100.00;96633.13;5014755;28;20218;-77
2021/08/08 09:45:41;;;;;;;2.83;2.10;;;;;;;30.46;100.00;96631.00;5014851;28;20635;-76
2021/08/08 09:48:11;;;;;;;1.70;1.60;;;;;;;30.51;100.00;96622.84;5013293;28;20636;-77
2021/08/08 09:50:40;;;;;;;2.17;2.08;;;;;;;30.70;100.00;96628.47;5015084;28;20605;-77
2021/08/08 09:53:11;;;;;;;2.83;1.88;;;;;;;30.29;100.00;96612.34;5014446;28;20239;-77
2021/08/08 09:55:39;;;;;;;2.10;2.00;;;;;;;30.07;100.00;96620.78;5015022;28;20557;-77
2021/08/08 09:58:20;;;;;;;1.80;1.70;;;;;;;29.75;100.00;96614.88;5014309;28;20195;-76
2021/08/08 10:00:47;;;;;;;3.70;2.10;;;;;;;30.23;100.00;96618.06;5014611;28;20656;-77
2021/08/08 10:03:16;;;;;;;2.08;1.98;;;;;;;30.53;100.00;96612.53;5014652;28;20226;-77
2021/08/08 10:05:46;;;;;;;5.55;3.22;;;;;;;30.45;100.00;96613.13;5014219;28;20700;-77
2021/08/08 10:08:15;;;;;;;1.95;1.85;;;;;;;30.33;100.00;96615.31;5014336;28;20191;-77
2021/08/08 10:10:44;;;;;;;1.88;1.75;;;;;;;30.55;100.00;96604.09;5014668;28;20214;-77
2021/08/08 10:13:32;;;;;;;3.05;1.80;;;;;;;30.75;100.00;96603.19;5014250;28;20199;-77
2021/08/08 10:16:00;;;;;;;3.60;2.00;;;;;;;30.98;100.00;96610.69;5024114;28;20256;-78
2021/08/08 10:18:33;;;;;;;2.00;1.90;;;;;;;30.66;100.00;96613.84;5034079;28;20582;-78
2021/08/08 10:21:02;;;;;;;1.83;1.70;;;;;;;31.02;100.00;96609.03;5033836;28;20282;-77
2021/08/08 10:23:32;;;;;;;2.20;2.10;;;;;;;31.54;100.00;96603.28;5033362;28;20262;-77
2021/08/08 10:26:00;;;;;;;1.95;1.85;;;;;;;31.64;100.00;96595.03;5033762;28;20623;-77
2021/08/08 10:28:29;;;;;;;2.53;2.05;;;;;;;31.37;100.00;96592.81;5033460;28;20293;-79
2021/08/08 10:31:00;;;;;;;1.63;1.52;;;;;;;31.09;100.00;96603.31;5034057;28;20202;-78
2021/08/08 10:33:27;;;;;;;1.88;1.73;;;;;;;30.86;100.00;96603.97;5031823;28;20206;-77
2021/08/08 10:35:54;;;;;;;2.60;2.00;;;;;;;31.01;100.00;96593.84;5032624;28;20289;-78
2021/08/08 10:38:21;;;;;;;2.05;1.95;;;;;;;31.18;100.00;96588.03;5032487;28;20907;-78
2021/08/08 10:40:49;;;;;;;1.98;1.88;;;;;;;31.07;100.00;96586.50;5032549;28;20203;-78
2021/08/08 10:43:27;;;;;;;2.38;1.98;;;;;;;31.41;100.00;96583.81;5032368;28;20195;-78
2021/08/08 10:46:05;;;;;;;4.57;1.90;;;;;;;31.54;100.00;96586.97;5032164;28;20187;-78
2021/08/08 10:48:34;;;;;;;2.25;2.08;;;;;;;31.18;100.00;96587.25;5032349;28;20289;-77
2021/08/08 10:51:02;;;;;;;7.40;2.30;;;;;;;31.32;100.00;96582.00;5032363;28;20207;-78
2021/08/08 10:53:31;;;;;;;2.80;2.00;;;;;;;31.62;100.00;96584.44;5032033;28;20233;-78
2021/08/08 10:56:07;;;;;;;2.03;1.85;;;;;;;31.81;100.00;96581.03;5032250;28;20202;-78
2021/08/08 10:58:36;;;;;;;2.45;2.22;;;;;;;31.64;100.00;96582.25;5031738;28;20194;-79
2021/08/08 11:01:16;;;;;;;1.80;1.70;;;;;;;31.62;100.00;96575.47;5032015;28;20301;-78
2021/08/08 11:03:52;;;;;;;2.15;2.03;;;;;;;31.71;100.00;96573.78;5032220;28;20675;-78
2021/08/08 11:06:21;;;;;;;1.85;1.75;;;;;;;31.58;100.00;96577.16;5032334;28;20197;-78
2021/08/08 11:08:53;;;;;;;2.17;1.83;;;;;;;31.90;100.00;96574.72;5031726;28;20198;-78
2021/08/08 11:11:24;;;;;;;3.13;1.90;;;;;;;32.01;100.00;96580.84;5032016;28;20190;-78
2021/08/08 11:13:52;;;;;;;2.15;2.05;;;;;;;31.88;100.00;96576.91;5031464;28;20714;-78
2021/08/08 11:16:21;;;;;;;1.98;1.85;;;;;;;32.04;100.00;96576.72;5032126;28;20229;-78
2021/08/08 11:18:58;;;;;;;2.00;1.90;;;;;;;31.69;100.00;96568.63;5031619;28;20668;-78
2021/08/08 11:21:26;;;;;;;2.70;1.92;;;;;;;31.63;100.00;96568.97;5031821;28;20191;-78
2021/08/08 11:23:55;;;;;;;2.75;2.10;;;;;;;31.97;100.00;96568.91;5031669;28;20237;-78
2021/08/08 11:26:22;;;;;;;2.15;1.95;;;;;;;31.80;100.00;96572.06;5031245;28;20194;-78
2021/08/08 11:28:54;;;;;;;2.17;1.95;;;;;;;31.48;100.00;96570.72;5031159;28;20203;-78